Time;durP1;ratioP1;P1;durP2;ratioP2;P2;SDS_P1;SDS_P2;PMS_P1;PMS_P2;Temp;Humidity;BMP_temperature;BMP_pressure;BME280_temperature;BME280_humidity;BME280_pressure;Samples;Min_cycle;Max_cycle;Signal;HPM_P1;HPM_P2
2022/10/20 00:00:57;;;;;;;14.32;8.98;;;;;;;;;;4987578;28;20109;-70
2022/10/20 00:03:23;;;;;;;11.98;10.70;;;;;;;;;;4988213;28;20089;-71
2022/10/20 00:05:49;;;;;;;12.75;10.27;;;;;;;;;;4988867;28;20042;-71
2022/10/20 00:08:15;;;;;;;19.00;11.55;;;;;;;;;;4989173;28;20035;-70
2022/10/20 00:10:41;;;;;;;12.95;10.57;;;;;;;;;;4984466;28;20038;-70
2022/10/20 00:13:07;;;;;;;10.27;9.23;;;;;;;;;;4987181;28;20052;-70
2022/10/20 00:15:33;;;;;;;17.17;10.77;;;;;;;;;;4986406;28;20035;-70
2022/10/20 00:17:59;;;;;;;14.55;10.18;;;;;;;;;;4988170;28;20069;-70
2022/10/20 00:20:24;;;;;;;10.70;9.65;;;;;;;;;;4985367;28;20069;-70
2022/10/20 00:22:50;;;;;;;12.07;9.73;;;;;;;;;;4988149;28;20081;-70
2022/10/20 00:25:15;;;;;;;15.45;11.10;;;;;;;;;;4988690;28;20046;-70
2022/10/20 00:27:41;;;;;;;11.55;9.45;;;;;;;;;;4987863;28;20046;-70
2022/10/20 00:30:07;;;;;;;10.32;9.32;;;;;;;;;;4984983;28;20038;-70
2022/10/20 00:32:32;;;;;;;13.98;11.52;;;;;;;;;;4988088;28;20045;-70
2022/10/20 00:34:58;;;;;;;10.23;8.80;;;;;;;;;;4988299;28;20030;-70
2022/10/20 00:37:24;;;;;;;13.63;10.85;;;;;;;;;;4988491;28;20420;-69
2022/10/20 00:39:49;;;;;;;16.95;10.43;;;;;;;;;;4985731;28;20048;-70
2022/10/20 00:42:17;;;;;;;13.43;8.93;;;;;;;;;;4987818;28;20483;-70
2022/10/20 00:44:58;;;;;;;12.40;10.07;;;;;;;;;;4987818;28;20409;-70
2022/10/20 00:47:45;;;;;;;11.63;10.07;;;;;;;;;;4986400;28;20034;-70
2022/10/20 00:50:31;;;;;;;14.32;8.77;;;;;;;;;;4987921;28;20405;-70
2022/10/20 00:52:58;;;;;;;13.27;10.65;;;;;;;;;;4991823;28;20038;-70
2022/10/20 00:55:27;;;;;;;15.27;9.82;;;;;;;;;;4990113;28;20186;-70
2022/10/20 00:57:54;;;;;;;;;;;;;;;;;;4992018;28;20030;-70
2022/10/20 01:00:20;;;;;;;18.15;11.18;;;;;;;;;;4991825;28;19940;-70
2022/10/20 01:02:48;;;;;;;10.18;9.18;;;;;;;;;;4990542;28;20022;-70
2022/10/20 01:05:14;;;;;;;10.73;9.70;;;;;;;;;;4990182;28;20038;-70
2022/10/20 01:07:40;;;;;;;11.10;9.63;;;;;;;;;;4991445;28;20046;-70
2022/10/20 01:10:06;;;;;;;10.02;9.02;;;;;;;;;;4987805;28;20316;-69
2022/10/20 01:12:35;;;;;;;13.05;9.32;;;;;;;;;;4986972;28;20027;-70
2022/10/20 01:15:07;;;;;;;14.50;11.77;;;;;;;;;;4990055;28;20038;-70
2022/10/20 01:17:58;;;;;;;15.82;10.93;;;;;;;;;;4991371;28;20114;-70
2022/10/20 01:20:35;;;;;;;11.70;10.02;;;;;;;;;;4989283;28;20490;-70
2022/10/20 01:23:22;;;;;;;13.38;10.20;;;;;;;;;;4990956;28;20053;-70
2022/10/20 01:26:07;;;;;;;12.13;9.02;;;;;;;;;;4991653;28;20337;-70
2022/10/20 01:28:37;;;;;;;12.88;9.93;;;;;;;;;;4988944;28;20562;-70
2022/10/20 01:31:17;;;;;;;9.57;8.13;;;;;;;;;;4989331;28;20038;-69
2022/10/20 01:33:53;;;;;;;14.35;10.25;;;;;;;;;;4991722;28;20061;-70
2022/10/20 01:36:31;;;;;;;16.75;11.00;;;;;;;;;;4991597;28;20500;-70
2022/10/20 01:39:13;;;;;;;10.13;9.13;;;;;;;;;;4988812;28;20461;-69
2022/10/20 01:41:53;;;;;;;12.52;10.05;;;;;;;;;;4989586;28;20472;-69
2022/10/20 01:44:22;;;;;;;17.80;10.98;;;;;;;;;;4991015;28;20033;-69
2022/10/20 01:46:48;;;;;;;9.25;8.40;;;;;;;;;;4989255;28;20034;-70
2022/10/20 01:49:14;;;;;;;17.27;10.18;;;;;;;;;;4990742;28;20113;-70
2022/10/20 01:51:40;;;;;;;13.18;9.55;;;;;;;;;;4990625;28;20121;-70
2022/10/20 01:54:06;;;;;;;16.75;10.05;;;;;;;;;;4990952;28;20129;-70
2022/10/20 01:56:44;;;;;;;11.05;9.18;;;;;;;;;;4989154;28;20351;-69
2022/10/20 01:59:19;;;;;;;22.67;11.57;;;;;;;;;;4990356;28;20030;-69
2022/10/20 02:02:12;;;;;;;12.43;9.13;;;;;;;;;;4989700;28;20121;-70
2022/10/20 02:04:45;;;;;;;10.57;9.57;;;;;;;;;;4985994;28;20084;-70
2022/10/20 02:07:21;;;;;;;12.20;10.45;;;;;;;;;;4990020;28;20537;-69
2022/10/20 02:09:50;;;;;;;15.65;11.13;;;;;;;;;;4989360;28;20038;-70
2022/10/20 02:12:21;;;;;;;17.92;12.18;;;;;;;;;;4981013;28;20112;-69
2022/10/20 02:14:47;;;;;;;18.33;10.85;;;;;;;;;;4988921;28;20023;-70
2022/10/20 02:17:15;;;;;;;18.73;12.50;;;;;;;;;;4990293;28;20494;-70
2022/10/20 02:19:44;;;;;;;16.52;12.48;;;;;;;;;;4990200;28;20041;-70
2022/10/20 02:22:12;;;;;;;18.55;11.65;;;;;;;;;;4988678;28;20045;-70
2022/10/20 02:24:40;;;;;;;17.13;11.80;;;;;;;;;;4989944;28;20027;-70
2022/10/20 02:27:16;;;;;;;18.95;12.68;;;;;;;;;;4990378;28;20042;-69
2022/10/20 02:29:46;;;;;;;16.10;12.65;;;;;;;;;;4985851;28;20065;-69
2022/10/20 02:32:13;;;;;;;16.42;13.00;;;;;;;;;;4988109;28;20046;-71
2022/10/20 02:34:39;;;;;;;18.88;12.65;;;;;;;;;;4989224;28;20089;-71
2022/10/20 02:37:05;;;;;;;17.50;12.35;;;;;;;;;;4988947;28;20310;-71
2022/10/20 02:39:30;;;;;;;18.02;12.05;;;;;;;;;;4989633;28;20058;-71
2022/10/20 02:41:56;;;;;;;19.52;13.43;;;;;;;;;;4989886;28;20076;-71
2022/10/20 02:44:21;;;;;;;15.15;11.27;;;;;;;;;;4989431;28;20065;-71
2022/10/20 02:46:47;;;;;;;17.65;12.00;;;;;;;;;;4987707;28;20045;-69
2022/10/20 02:49:13;;;;;;;17.83;12.85;;;;;;;;;;4981358;28;20575;-71
2022/10/20 02:51:38;;;;;;;14.02;10.48;;;;;;;;;;4988833;28;20117;-72
2022/10/20 02:54:04;;;;;;;18.58;12.65;;;;;;;;;;4989201;28;20037;-71
2022/10/20 02:56:29;;;;;;;18.25;12.40;;;;;;;;;;4989903;28;20166;-71
2022/10/20 02:58:55;;;;;;;17.92;13.07;;;;;;;;;;4988647;28;20091;-71
2022/10/20 03:01:21;;;;;;;16.77;11.75;;;;;;;;;;4988520;28;20054;-72
2022/10/20 03:03:46;;;;;;;13.35;11.18;;;;;;;;;;4987735;28;20026;-71
2022/10/20 03:06:14;;;;;;;19.17;12.65;;;;;;;;;;4989207;28;20069;-71
2022/10/20 03:08:41;;;;;;;22.83;13.70;;;;;;;;;;4987517;28;20045;-71
2022/10/20 03:11:07;;;;;;;18.60;12.63;;;;;;;;;;4986961;28;20626;-71
2022/10/20 03:13:32;;;;;;;17.15;13.25;;;;;;;;;;4988220;28;20038;-71
2022/10/20 03:15:58;;;;;;;18.73;12.45;;;;;;;;;;4988488;28;20041;-71
2022/10/20 03:18:24;;;;;;;21.75;13.00;;;;;;;;;;4989432;28;20081;-71
2022/10/20 03:20:50;;;;;;;21.00;13.90;;;;;;;;;;4987081;28;20561;-71
2022/10/20 03:23:16;;;;;;;19.27;13.38;;;;;;;;;;4988500;28;20410;-71
2022/10/20 03:25:42;;;;;;;19.98;13.80;;;;;;;;;;4989406;28;20046;-71
2022/10/20 03:28:07;;;;;;;21.08;13.45;;;;;;;;;;4989358;28;20379;-72
2022/10/20 03:30:33;;;;;;;21.10;13.65;;;;;;;;;;4986530;28;20378;-69
2022/10/20 03:32:59;;;;;;;20.42;13.05;;;;;;;;;;4988142;28;20120;-72
2022/10/20 03:35:24;;;;;;;21.98;12.90;;;;;;;;;;4987586;28;20561;-72
2022/10/20 03:37:50;;;;;;;28.73;13.60;;;;;;;;;;4986502;28;20048;-71
2022/10/20 03:40:15;;;;;;;20.17;14.10;;;;;;;;;;4988460;28;20042;-71
2022/10/20 03:42:41;;;;;;;20.58;13.50;;;;;;;;;;4988803;28;20042;-72
2022/10/20 03:45:07;;;;;;;20.20;13.13;;;;;;;;;;4986667;28;20050;-71
2022/10/20 03:47:33;;;;;;;20.88;13.52;;;;;;;;;;4988462;28;20054;-69
2022/10/20 03:49:58;;;;;;;21.58;14.23;;;;;;;;;;4987602;28;20035;-72
2022/10/20 03:52:24;;;;;;;26.23;14.50;;;;;;;;;;4988751;28;20049;-71
2022/10/20 03:54:49;;;;;;;21.35;13.27;;;;;;;;;;4987040;28;20391;-71
2022/10/20 03:57:15;;;;;;;22.30;13.43;;;;;;;;;;4988452;28;20034;-71
2022/10/20 03:59:41;;;;;;;18.67;13.10;;;;;;;;;;4989825;28;20034;-71
2022/10/20 04:02:06;;;;;;;19.38;12.95;;;;;;;;;;4986032;28;20046;-71
2022/10/20 04:04:32;;;;;;;13.63;11.45;;;;;;;;;;4988117;28;20061;-71
2022/10/20 04:06:58;;;;;;;19.42;12.90;;;;;;;;;;4988525;28;20042;-71
2022/10/20 04:09:23;;;;;;;22.17;13.85;;;;;;;;;;4986717;28;20310;-69
2022/10/20 04:11:49;;;;;;;21.50;13.50;;;;;;;;;;4983433;28;20388;-69
2022/10/20 04:14:14;;;;;;;23.27;13.88;;;;;;;;;;4987060;28;20137;-69
2022/10/20 04:16:40;;;;;;;24.40;13.20;;;;;;;;;;4988159;28;20100;-71
2022/10/20 04:19:06;;;;;;;21.02;12.98;;;;;;;;;;4987909;28;20506;-69
2022/10/20 04:21:31;;;;;;;14.75;11.32;;;;;;;;;;4982765;28;20077;-69
2022/10/20 04:23:57;;;;;;;20.70;13.07;;;;;;;;;;4986783;28;20113;-70
2022/10/20 04:26:23;;;;;;;23.50;13.80;;;;;;;;;;4987043;28;20045;-70
2022/10/20 04:28:48;;;;;;;16.42;11.55;;;;;;;;;;4988190;28;20038;-69
2022/10/20 04:31:14;;;;;;;28.27;12.05;;;;;;;;;;4979425;28;20034;-69
2022/10/20 04:33:39;;;;;;;17.30;11.90;;;;;;;;;;4987873;28;20413;-70
2022/10/20 04:36:07;;;;;;;20.58;14.07;;;;;;;;;;4988238;28;20037;-70
2022/10/20 04:38:33;;;;;;;21.77;13.45;;;;;;;;;;4986347;28;20096;-69
2022/10/20 04:41:03;;;;;;;16.13;12.60;;;;;;;;;;4987359;28;20054;-69
2022/10/20 04:43:28;;;;;;;;;;;;;;;;;;4987136;28;20031;-70
2022/10/20 04:45:58;;;;;;;23.08;13.68;;;;;;;;;;4986954;28;19917;-70
2022/10/20 04:48:24;;;;;;;19.35;12.48;;;;;;;;;;4986890;28;20035;-70
2022/10/20 04:51:06;;;;;;;16.67;12.73;;;;;;;;;;4985876;28;20092;-70
2022/10/20 04:53:31;;;;;;;28.92;13.98;;;;;;;;;;4984376;28;20397;-69
2022/10/20 04:55:57;;;;;;;23.25;14.40;;;;;;;;;;4987566;28;20125;-69
2022/10/20 04:58:23;;;;;;;22.88;13.63;;;;;;;;;;4985897;28;20213;-69
2022/10/20 05:00:49;;;;;;;17.13;11.63;;;;;;;;;;4987417;28;20034;-71
2022/10/20 05:03:15;;;;;;;21.08;13.02;;;;;;;;;;4988017;28;20370;-72
2022/10/20 05:05:41;;;;;;;19.65;11.45;;;;;;;;;;4987508;28;20042;-69
2022/10/20 05:08:06;;;;;;;17.75;12.60;;;;;;;;;;4985509;28;20042;-71
2022/10/20 05:10:32;;;;;;;21.75;14.07;;;;;;;;;;4985047;28;20045;-71
2022/10/20 05:12:57;;;;;;;19.95;13.02;;;;;;;;;;4985567;28;20038;-69
2022/10/20 05:15:23;;;;;;;23.23;13.35;;;;;;;;;;4986134;28;20402;-69
2022/10/20 05:17:48;;;;;;;15.98;12.35;;;;;;;;;;4985782;28;20058;-69
2022/10/20 05:20:14;;;;;;;19.88;11.95;;;;;;;;;;4987144;28;20034;-70
2022/10/20 05:22:39;;;;;;;32.80;11.95;;;;;;;;;;4986603;28;20046;-69
2022/10/20 05:25:05;;;;;;;20.13;13.65;;;;;;;;;;4987518;28;20509;-69
2022/10/20 05:27:31;;;;;;;19.10;12.63;;;;;;;;;;4985490;28;20042;-69
2022/10/20 05:29:56;;;;;;;22.40;12.88;;;;;;;;;;4987106;28;20042;-69
2022/10/20 05:32:22;;;;;;;17.15;11.65;;;;;;;;;;4986557;28;20030;-69
2022/10/20 05:34:47;;;;;;;22.63;13.93;;;;;;;;;;4985104;28;20386;-71
2022/10/20 05:37:13;;;;;;;13.27;11.68;;;;;;;;;;4988477;28;20045;-71
2022/10/20 05:39:38;;;;;;;23.27;13.75;;;;;;;;;;4990245;28;20046;-70
2022/10/20 05:42:05;;;;;;;18.52;12.68;;;;;;;;;;4989088;28;20030;-70
2022/10/20 05:44:30;;;;;;;19.08;13.10;;;;;;;;;;4989808;28;20110;-70
2022/10/20 05:46:56;;;;;;;20.40;14.23;;;;;;;;;;4989964;28;20112;-70
2022/10/20 05:49:22;;;;;;;17.40;11.98;;;;;;;;;;4990734;28;20173;-70
2022/10/20 05:51:48;;;;;;;12.52;10.15;;;;;;;;;;4989445;28;20030;-70
2022/10/20 05:54:14;;;;;;;17.88;11.65;;;;;;;;;;4988705;28;20029;-70
2022/10/20 05:56:40;;;;;;;21.50;13.63;;;;;;;;;;4991126;28;20073;-70
2022/10/20 05:59:05;;;;;;;15.13;12.05;;;;;;;;;;4989391;28;20030;-71
2022/10/20 06:01:39;;;;;;;17.63;12.55;;;;;;;;;;4987996;28;20483;-71
2022/10/20 06:04:09;;;;;;;17.25;12.60;;;;;;;;;;4990018;28;20040;-70
2022/10/20 06:06:35;;;;;;;21.10;13.70;;;;;;;;;;4985553;28;20088;-70
2022/10/20 06:09:05;;;;;;;17.80;11.65;;;;;;;;;;4982925;28;20046;-70
2022/10/20 06:11:30;;;;;;;12.13;10.57;;;;;;;;;;4989512;28;20068;-70
2022/10/20 06:13:56;;;;;;;12.20;10.38;;;;;;;;;;4990239;28;20094;-70
2022/10/20 06:16:26;;;;;;;12.52;11.18;;;;;;;;;;4991954;28;20564;-70
2022/10/20 06:18:52;;;;;;;16.05;11.77;;;;;;;;;;4993115;28;20028;-71
2022/10/20 06:21:20;;;;;;;10.15;9.18;;;;;;;;;;4989176;28;20038;-70
2022/10/20 06:23:47;;;;;;;16.90;13.37;;;;;;;;;;4990352;28;20568;-70
2022/10/20 06:26:18;;;;;;;15.55;12.52;;;;;;;;;;4990773;28;20289;-70
2022/10/20 06:28:46;;;;;;;12.65;10.75;;;;;;;;;;4988880;28;20374;-70
2022/10/20 06:31:14;;;;;;;10.80;9.77;;;;;;;;;;4990381;28;20034;-70
2022/10/20 06:33:40;;;;;;;15.05;11.50;;;;;;;;;;4989509;28;20482;-70
2022/10/20 06:36:07;;;;;;;14.20;11.93;;;;;;;;;;4989821;28;20070;-71
2022/10/20 06:38:33;;;;;;;14.05;12.05;;;;;;;;;;4989577;28;20421;-70
2022/10/20 06:41:03;;;;;;;14.05;11.05;;;;;;;;;;4990263;28;20034;-70
2022/10/20 06:43:28;;;;;;;9.55;8.55;;;;;;;;;;4990433;28;20606;-70
2022/10/20 06:45:56;;;;;;;10.82;9.73;;;;;;;;;;4988829;28;20038;-70
2022/10/20 06:48:22;;;;;;;9.80;8.65;;;;;;;;;;4989315;28;20505;-71
2022/10/20 06:50:48;;;;;;;11.35;10.23;;;;;;;;;;4990403;28;20034;-71
2022/10/20 06:53:14;;;;;;;13.10;10.23;;;;;;;;;;4988799;28;20040;-71
2022/10/20 06:55:40;;;;;;;12.57;10.95;;;;;;;;;;4995541;28;20489;-70
2022/10/20 06:58:05;;;;;;;11.75;10.55;;;;;;;;;;4990788;28;20560;-70
2022/10/20 07:00:31;;;;;;;12.77;10.25;;;;;;;;;;4989198;28;20044;-70
2022/10/20 07:02:56;;;;;;;12.45;11.20;;;;;;;;;;4987921;28;20034;-71
2022/10/20 07:05:22;;;;;;;9.40;8.60;;;;;;;;;;4989985;28;20462;-70
2022/10/20 07:07:51;;;;;;;11.57;10.48;;;;;;;;;;4990396;28;20476;-70
2022/10/20 07:10:17;;;;;;;13.50;10.85;;;;;;;;;;4988245;28;20066;-70
2022/10/20 07:12:43;;;;;;;12.75;10.60;;;;;;;;;;4989754;28;20089;-70
2022/10/20 07:15:09;;;;;;;10.77;9.40;;;;;;;;;;4990008;28;20490;-70
2022/10/20 07:17:35;;;;;;;11.32;10.07;;;;;;;;;;4989909;28;20385;-70
2022/10/20 07:20:01;;;;;;;11.40;10.30;;;;;;;;;;4988728;28;20030;-71
2022/10/20 07:22:26;;;;;;;10.90;9.93;;;;;;;;;;4989234;28;20068;-71
2022/10/20 07:24:52;;;;;;;11.48;9.80;;;;;;;;;;4990067;28;20078;-71
2022/10/20 07:27:18;;;;;;;8.93;8.20;;;;;;;;;;4989907;28;20034;-70
2022/10/20 07:29:43;;;;;;;10.13;9.30;;;;;;;;;;4987648;28;20044;-70
2022/10/20 07:32:09;;;;;;;10.43;9.40;;;;;;;;;;4989189;28;20037;-70
2022/10/20 07:34:34;;;;;;;10.73;9.73;;;;;;;;;;4989863;28;20046;-70
2022/10/20 07:37:00;;;;;;;10.18;9.13;;;;;;;;;;4987991;28;20048;-71
2022/10/20 07:39:26;;;;;;;11.18;9.52;;;;;;;;;;4992008;28;20037;-70
2022/10/20 07:41:51;;;;;;;9.63;8.68;;;;;;;;;;4991312;28;20037;-70
2022/10/20 07:44:17;;;;;;;10.70;9.45;;;;;;;;;;4987123;28;20601;-70
2022/10/20 07:46:43;;;;;;;9.60;8.65;;;;;;;;;;4988411;28;20476;-71
2022/10/20 07:49:09;;;;;;;10.40;9.40;;;;;;;;;;4989706;28;20030;-71
2022/10/20 07:51:34;;;;;;;12.82;10.45;;;;;;;;;;4989523;28;20049;-71
2022/10/20 07:54:02;;;;;;;11.88;9.10;;;;;;;;;;4987607;28;20034;-71
2022/10/20 07:56:31;;;;;;;10.57;9.38;;;;;;;;;;4989150;28;20037;-72
2022/10/20 07:58:57;;;;;;;8.43;7.82;;;;;;;;;;4989740;28;20122;-71
2022/10/20 08:01:22;;;;;;;10.57;9.43;;;;;;;;;;4988501;28;20496;-71
2022/10/20 08:03:48;;;;;;;12.73;8.80;;;;;;;;;;4986788;28;20026;-70
2022/10/20 08:06:18;;;;;;;9.38;8.50;;;;;;;;;;4988950;28;20057;-71
2022/10/20 08:08:43;;;;;;;;;;;;;;;;;;4985953;28;20537;-71
2022/10/20 08:11:09;;;;;;;9.43;8.63;;;;;;;;;;4985283;28;19964;-71
2022/10/20 08:13:35;;;;;;;8.57;7.80;;;;;;;;;;4986929;28;20084;-71
2022/10/20 08:16:00;;;;;;;7.53;7.03;;;;;;;;;;4986750;28;20046;-70
2022/10/20 08:18:26;;;;;;;7.70;7.10;;;;;;;;;;4986030;28;20054;-71
2022/10/20 08:20:52;;;;;;;9.73;8.77;;;;;;;;;;4986136;28;20042;-70
2022/10/20 08:23:18;;;;;;;10.18;7.65;;;;;;;;;;4986892;28;20034;-71
2022/10/20 08:25:43;;;;;;;7.50;6.80;;;;;;;;;;4987250;28;20076;-71
2022/10/20 08:28:09;;;;;;;8.70;7.90;;;;;;;;;;4985805;28;20038;-70
2022/10/20 08:30:35;;;;;;;7.70;7.10;;;;;;;;;;4986280;28;20045;-71
2022/10/20 08:33:01;;;;;;;8.70;7.80;;;;;;;;;;4986877;28;20037;-70
2022/10/20 08:35:26;;;;;;;11.63;8.02;;;;;;;;;;4985363;28;20069;-70
2022/10/20 08:37:52;;;;;;;9.55;8.50;;;;;;;;;;4986121;28;20034;-72
2022/10/20 08:40:29;;;;;;;9.60;8.02;;;;;;;;;;4986432;28;20045;-73
2022/10/20 08:42:56;;;;;;;8.40;7.80;;;;;;;;;;4986424;28;20038;-71
2022/10/20 08:45:24;;;;;;;9.23;8.45;;;;;;;;;;4985045;28;20110;-70
2022/10/20 08:47:52;;;;;;;9.57;7.85;;;;;;;;;;4985483;28;20040;-71
2022/10/20 08:50:20;;;;;;;9.13;8.32;;;;;;;;;;4985362;28;20164;-72
2022/10/20 08:52:49;;;;;;;9.73;7.82;;;;;;;;;;4985558;28;20492;-71
2022/10/20 08:55:25;;;;;;;8.73;7.90;;;;;;;;;;4985648;28;20121;-72
2022/10/20 08:57:51;;;;;;;10.07;8.18;;;;;;;;;;4986131;28;20034;-72
2022/10/20 09:00:20;;;;;;;8.40;7.80;;;;;;;;;;4986317;28;20073;-72
2022/10/20 09:02:48;;;;;;;8.73;7.90;;;;;;;;;;4983986;28;20045;-71
2022/10/20 09:05:17;;;;;;;7.80;7.20;;;;;;;;;;4985758;28;20400;-71
2022/10/20 09:07:43;;;;;;;;;;;;;;;;;;4986594;28;20048;-73
2022/10/20 09:10:15;;;;;;;8.13;7.53;;;;;;;;;;4982123;28;20371;-73
2022/10/20 09:12:43;;;;;;;11.27;7.80;;;;;;;;;;4987832;28;20124;-71
2022/10/20 09:15:14;;;;;;;8.75;8.05;;;;;;;;;;4989775;28;20073;-73
2022/10/20 09:17:43;;;;;;;8.60;7.80;;;;;;;;;;4989985;28;20042;-72
2022/10/20 09:20:17;;;;;;;;;;;;;;;;;;4987434;28;20030;-73
2022/10/20 09:22:42;;;;;;;7.32;6.82;;;;;;;;;;4988482;28;19925;-73
2022/10/20 09:25:19;;;;;;;7.80;7.05;;;;;;;;;;4989638;28;20398;-72
2022/10/20 09:27:45;;;;;;;7.45;6.80;;;;;;;;;;4990134;28;20057;-71
2022/10/20 09:30:22;;;;;;;8.13;7.43;;;;;;;;;;4987767;28;20038;-70
2022/10/20 09:32:48;;;;;;;7.63;6.93;;;;;;;;;;4989186;28;20073;-71
2022/10/20 09:35:13;;;;;;;7.85;7.18;;;;;;;;;;4989201;28;20038;-72
2022/10/20 09:37:40;;;;;;;7.38;6.80;;;;;;;;;;4989545;28;20038;-71
2022/10/20 09:40:14;;;;;;;8.27;7.63;;;;;;;;;;4986901;28;20467;-72
2022/10/20 09:42:48;;;;;;;7.97;7.28;;;;;;;;;;4985435;28;20053;-71
2022/10/20 09:45:20;;;;;;;7.97;7.28;;;;;;;;;;4987796;28;20069;-72
2022/10/20 09:47:51;;;;;;;7.47;6.78;;;;;;;;;;4989836;28;20042;-72
2022/10/20 09:50:24;;;;;;;8.13;7.32;;;;;;;;;;4988099;28;20587;-71
2022/10/20 09:52:49;;;;;;;12.52;7.18;;;;;;;;;;4988324;28;20047;-71
2022/10/20 09:55:18;;;;;;;8.80;7.90;;;;;;;;;;4991037;28;20096;-71
2022/10/20 09:57:48;;;;;;;7.55;6.95;;;;;;;;;;4991248;28;20030;-72
2022/10/20 10:00:24;;;;;;;7.75;7.15;;;;;;;;;;4989261;28;20030;-71
2022/10/20 10:03:13;;;;;;;8.80;7.05;;;;;;;;;;4988970;28;20049;-71
2022/10/20 10:05:39;;;;;;;7.43;6.90;;;;;;;;;;4987971;28;20038;-71
2022/10/20 10:08:04;;;;;;;8.98;7.45;;;;;;;;;;4990867;28;20034;-72
2022/10/20 10:10:30;;;;;;;8.75;8.02;;;;;;;;;;4987530;28;20030;-71
2022/10/20 10:13:02;;;;;;;8.13;7.53;;;;;;;;;;4989940;28;20030;-71
2022/10/20 10:15:37;;;;;;;8.18;7.57;;;;;;;;;;4983407;28;20114;-71
2022/10/20 10:18:21;;;;;;;8.40;7.80;;;;;;;;;;4989354;28;20048;-72
2022/10/20 10:21:00;;;;;;;8.65;7.80;;;;;;;;;;4989483;28;20045;-71
2022/10/20 10:23:28;;;;;;;8.45;7.63;;;;;;;;;;4989430;28;20054;-71
2022/10/20 10:25:53;;;;;;;9.13;7.40;;;;;;;;;;4990638;28;20042;-73
2022/10/20 10:28:28;;;;;;;8.65;7.72;;;;;;;;;;4989282;28;20425;-72
2022/10/20 10:31:08;;;;;;;7.80;7.10;;;;;;;;;;4989552;28;20391;-72
2022/10/20 10:33:34;;;;;;;8.35;7.20;;;;;;;;;;4990125;28;20097;-72
2022/10/20 10:36:25;;;;;;;7.22;6.72;;;;;;;;;;4988541;28;20498;-71
2022/10/20 10:38:51;;;;;;;6.78;6.10;;;;;;;;;;4989093;28;20039;-71
2022/10/20 10:41:29;;;;;;;7.97;7.28;;;;;;;;;;4989779;28;20027;-72
2022/10/20 10:44:13;;;;;;;9.00;7.88;;;;;;;;;;4989478;28;20046;-71
2022/10/20 10:46:53;;;;;;;8.38;7.68;;;;;;;;;;4989246;28;20130;-72
2022/10/20 10:49:37;;;;;;;8.35;7.65;;;;;;;;;;4990499;28;20391;-71
2022/10/20 10:52:15;;;;;;;8.65;7.95;;;;;;;;;;4989400;28;20058;-72
2022/10/20 10:54:50;;;;;;;11.38;7.53;;;;;;;;;;4987741;28;20120;-70
2022/10/20 10:57:49;;;;;;;8.98;7.50;;;;;;;;;;4989841;28;20084;-71
2022/10/20 11:00:41;;;;;;;8.60;7.68;;;;;;;;;;4990185;28;20042;-74
2022/10/20 11:03:35;;;;;;;8.63;7.82;;;;;;;;;;4986398;28;20118;-71
2022/10/20 11:06:07;;;;;;;8.90;8.05;;;;;;;;;;4988169;28;20046;-71
2022/10/20 11:09:20;;;;;;;8.20;7.60;;;;;;;;;;4988589;28;20062;-71
2022/10/20 11:12:03;;;;;;;8.32;7.55;;;;;;;;;;4965423;28;20330;-71
2022/10/20 11:15:01;;;;;;;6.82;6.32;;;;;;;;;;4966423;28;20577;-72
2022/10/20 11:17:53;;;;;;;9.45;8.45;;;;;;;;;;4967119;28;20469;-71
2022/10/20 11:20:46;;;;;;;9.82;8.90;;;;;;;;;;4964512;28;20547;-71
2022/10/20 11:23:44;;;;;;;8.70;8.00;;;;;;;;;;4966606;28;20418;-71
2022/10/20 11:26:38;;;;;;;8.95;8.15;;;;;;;;;;4961134;28;20053;-72
2022/10/20 11:29:19;;;;;;;8.65;7.85;;;;;;;;;;4957258;28;20425;-71
2022/10/20 11:31:53;;;;;;;8.60;7.90;;;;;;;;;;4964010;28;20046;-72
2022/10/20 11:34:43;;;;;;;10.43;8.07;;;;;;;;;;4964268;28;20046;-72
2022/10/20 11:37:16;;;;;;;8.60;7.90;;;;;;;;;;4961166;28;20077;-71
2022/10/20 11:40:08;;;;;;;8.82;8.15;;;;;;;;;;4964202;28;20054;-72
2022/10/20 11:42:43;;;;;;;8.40;7.70;;;;;;;;;;4942434;28;20397;-72
2022/10/20 11:45:46;;;;;;;8.57;7.88;;;;;;;;;;4962551;28;20485;-70
2022/10/20 11:48:16;;;;;;;8.00;7.40;;;;;;;;;;4988403;28;20073;-72
2022/10/20 11:50:47;;;;;;;8.52;7.80;;;;;;;;;;4989201;28;20441;-71
2022/10/20 11:53:50;;;;;;;8.27;7.47;;;;;;;;;;4984675;28;20385;-71
2022/10/20 11:56:24;;;;;;;8.75;7.95;;;;;;;;;;4985685;28;20053;-71
2022/10/20 11:59:16;;;;;;;8.43;7.82;;;;;;;;;;4986824;28;20073;-72
2022/10/20 12:02:07;;;;;;;8.55;7.95;;;;;;;;;;4985208;28;20054;-72
2022/10/20 12:05:01;;;;;;;8.30;7.70;;;;;;;;;;4985990;28;20034;-71
2022/10/20 12:07:39;;;;;;;8.68;7.97;;;;;;;;;;4971733;28;20137;-72
2022/10/20 12:10:26;;;;;;;9.30;8.25;;;;;;;;;;4985508;28;20034;-71
2022/10/20 12:13:02;;;;;;;10.50;8.43;;;;;;;;;;4985833;28;20088;-71
2022/10/20 12:15:28;;;;;;;8.63;8.02;;;;;;;;;;4986516;28;20045;-70
2022/10/20 12:17:58;;;;;;;9.35;8.48;;;;;;;;;;4986406;28;20038;-72
2022/10/20 12:20:23;;;;;;;8.93;8.05;;;;;;;;;;4984140;28;20042;-71
2022/10/20 12:22:51;;;;;;;10.00;9.20;;;;;;;;;;4986219;28;20057;-70
2022/10/20 12:25:23;;;;;;;8.73;8.05;;;;;;;;;;4986595;28;20046;-70
2022/10/20 12:28:21;;;;;;;10.25;8.02;;;;;;;;;;4985020;28;20088;-71
2022/10/20 12:30:58;;;;;;;9.70;8.50;;;;;;;;;;4984928;28;20034;-70
2022/10/20 12:33:41;;;;;;;11.32;8.45;;;;;;;;;;4986977;28;20561;-70
2022/10/20 12:36:15;;;;;;;9.40;8.60;;;;;;;;;;4985398;28;20042;-71
2022/10/20 12:38:48;;;;;;;9.50;8.55;;;;;;;;;;4986448;28;20054;-71
2022/10/20 12:41:31;;;;;;;10.27;8.73;;;;;;;;;;4984353;28;20035;-72
2022/10/20 12:44:00;;;;;;;9.60;8.70;;;;;;;;;;4982729;28;20034;-70
2022/10/20 12:46:30;;;;;;;9.38;8.48;;;;;;;;;;4982367;28;20179;-70
2022/10/20 12:49:00;;;;;;;10.63;9.07;;;;;;;;;;4989237;28;20497;-72
2022/10/20 12:51:34;;;;;;;9.52;8.60;;;;;;;;;;4988236;28;20567;-70
2022/10/20 12:54:06;;;;;;;9.05;8.30;;;;;;;;;;4989558;28;20034;-71
2022/10/20 12:56:36;;;;;;;8.63;7.93;;;;;;;;;;4989033;28;20039;-71
2022/10/20 12:59:28;;;;;;;8.77;8.00;;;;;;;;;;4988768;28;20046;-72
2022/10/20 13:02:09;;;;;;;9.52;8.25;;;;;;;;;;4989685;28;20096;-71
2022/10/20 13:04:58;;;;;;;9.27;8.48;;;;;;;;;;4987276;28;20120;-71
2022/10/20 13:07:48;;;;;;;9.80;8.82;;;;;;;;;;4989799;28;20092;-71
2022/10/20 13:10:25;;;;;;;9.27;8.48;;;;;;;;;;4989701;28;20046;-73
2022/10/20 13:12:59;;;;;;;9.68;8.75;;;;;;;;;;4987770;28;20038;-71
2022/10/20 13:15:28;;;;;;;9.77;8.80;;;;;;;;;;4988900;28;20042;-72
2022/10/20 13:17:57;;;;;;;9.48;8.70;;;;;;;;;;4989545;28;20054;-70
2022/10/20 13:20:48;;;;;;;9.23;8.43;;;;;;;;;;4988967;28;20042;-71
2022/10/20 13:23:16;;;;;;;9.82;8.85;;;;;;;;;;4987102;28;20282;-71
2022/10/20 13:25:47;;;;;;;9.77;8.80;;;;;;;;;;4989515;28;20543;-70
2022/10/20 13:28:17;;;;;;;9.57;8.77;;;;;;;;;;4989809;28;20042;-71
2022/10/20 13:30:55;;;;;;;10.43;9.55;;;;;;;;;;4986511;28;20042;-71
2022/10/20 13:33:24;;;;;;;52.13;25.90;;;;;;;;;;4988544;28;20058;-71
2022/10/20 13:36:17;;;;;;;9.90;8.90;;;;;;;;;;4989709;28;20129;-71
2022/10/20 13:38:51;;;;;;;9.90;8.50;;;;;;;;;;4987190;28;20517;-71
2022/10/20 13:41:38;;;;;;;10.23;9.20;;;;;;;;;;4987209;28;20033;-71
2022/10/20 13:44:22;;;;;;;9.75;8.82;;;;;;;;;;4986926;28;20145;-71
2022/10/20 13:47:15;;;;;;;11.57;10.57;;;;;;;;;;4988426;28;20060;-71
2022/10/20 13:50:04;;;;;;;17.25;8.80;;;;;;;;;;4985683;28;20125;-71
2022/10/20 13:52:33;;;;;;;10.00;9.20;;;;;;;;;;4985015;28;20050;-71
2022/10/20 13:55:00;;;;;;;10.20;9.40;;;;;;;;;;4989015;28;20034;-72
2022/10/20 13:57:29;;;;;;;12.32;9.20;;;;;;;;;;4988540;28;20093;-72
2022/10/20 14:00:00;;;;;;;10.93;9.55;;;;;;;;;;4987488;28;20041;-72
2022/10/20 14:02:34;;;;;;;9.75;8.88;;;;;;;;;;4984548;28;20121;-71
2022/10/20 14:05:11;;;;;;;11.98;9.90;;;;;;;;;;4989146;28;20050;-72
2022/10/20 14:07:42;;;;;;;11.82;10.63;;;;;;;;;;4986628;28;20053;-71
2022/10/20 14:10:34;;;;;;;11.43;10.30;;;;;;;;;;4987017;28;20030;-70
2022/10/20 14:13:01;;;;;;;12.32;9.57;;;;;;;;;;4986561;28;20096;-71
2022/10/20 14:15:33;;;;;;;17.05;9.60;;;;;;;;;;4982971;28;20085;-72
2022/10/20 14:18:04;;;;;;;11.27;9.88;;;;;;;;;;4987787;28;20494;-70
2022/10/20 14:20:32;;;;;;;10.02;9.13;;;;;;;;;;4983977;28;20038;-71
2022/10/20 14:23:00;;;;;;;16.02;11.38;;;;;;;;;;4988652;28;20057;-71
2022/10/20 14:25:27;;;;;;;13.60;10.18;;;;;;;;;;4986175;28;20046;-71
2022/10/20 14:27:54;;;;;;;10.88;9.77;;;;;;;;;;4988666;28;20045;-71
2022/10/20 14:30:20;;;;;;;11.35;10.15;;;;;;;;;;4988349;28;20414;-71
2022/10/20 14:32:48;;;;;;;10.43;9.43;;;;;;;;;;4986773;28;20461;-70
2022/10/20 14:35:26;;;;;;;14.52;11.48;;;;;;;;;;4986079;28;20145;-71
2022/10/20 14:37:54;;;;;;;18.13;11.98;;;;;;;;;;4988361;28;20046;-70
2022/10/20 14:40:26;;;;;;;22.20;15.57;;;;;;;;;;4988179;28;20601;-70
2022/10/20 14:42:57;;;;;;;15.43;12.07;;;;;;;;;;4985552;28;20478;-71
2022/10/20 14:45:25;;;;;;;12.02;10.80;;;;;;;;;;4986516;28;20355;-70
2022/10/20 14:47:52;;;;;;;12.70;10.43;;;;;;;;;;4989819;28;20097;-71
2022/10/20 14:50:30;;;;;;;16.55;14.18;;;;;;;;;;4988194;28;20045;-71
2022/10/20 14:52:55;;;;;;;21.90;16.48;;;;;;;;;;4986153;28;20449;-71